sensor_id;sensor_type;location;lat;lon;timestamp;pressure;altitude;pressure_sealevel;temperature;humidity
44992;BME280;56865;51.618;7.406;2023-05-28T00:02:02;101291.06;;;29.97;52.69
44992;BME280;56865;51.618;7.406;2023-05-28T00:04:32;101284.66;;;29.82;52.12
44992;BME280;56865;51.618;7.406;2023-05-28T00:07:02;101282.53;;;29.92;52.49
44992;BME280;56865;51.618;7.406;2023-05-28T00:09:33;101289.75;;;29.87;52.05
44992;BME280;56865;51.618;7.406;2023-05-28T00:12:03;101286.31;;;29.84;52.08
44992;BME280;56865;51.618;7.406;2023-05-28T00:14:33;101286.84;;;29.72;52.97
44992;BME280;56865;51.618;7.406;2023-05-28T00:17:06;101281.47;;;29.75;52.68
44992;BME280;56865;51.618;7.406;2023-05-28T00:19:36;101277.69;;;29.81;53.22
44992;BME280;56865;51.618;7.406;2023-05-28T00:22:06;101273.31;;;29.81;52.85
44992;BME280;56865;51.618;7.406;2023-05-28T00:24:36;101277.59;;;29.84;52.80
44992;BME280;56865;51.618;7.406;2023-05-28T00:27:06;101272.81;;;29.94;53.06
44992;BME280;56865;51.618;7.406;2023-05-28T00:29:36;101269.91;;;29.59;52.36
44992;BME280;56865;51.618;7.406;2023-05-28T00:32:09;101267.00;;;29.44;53.08
44992;BME280;56865;51.618;7.406;2023-05-28T00:34:39;101261.75;;;29.44;53.16
44992;BME280;56865;51.618;7.406;2023-05-28T00:37:09;101263.28;;;29.28;52.99
44992;BME280;56865;51.618;7.406;2023-05-28T00:39:39;101260.59;;;29.31;53.58
44992;BME280;56865;51.618;7.406;2023-05-28T00:42:08;101266.06;;;29.25;53.16
44992;BME280;56865;51.618;7.406;2023-05-28T00:44:39;101262.16;;;29.35;53.50
44992;BME280;56865;51.618;7.406;2023-05-28T00:47:12;101264.28;;;29.25;53.20
44992;BME280;56865;51.618;7.406;2023-05-28T00:49:42;101264.34;;;29.24;52.97
44992;BME280;56865;51.618;7.406;2023-05-28T00:52:12;101267.31;;;29.16;53.26
44992;BME280;56865;51.618;7.406;2023-05-28T00:54:42;101264.06;;;29.09;53.51
44992;BME280;56865;51.618;7.406;2023-05-28T00:57:12;101263.19;;;28.88;54.03
44992;BME280;56865;51.618;7.406;2023-05-28T00:59:41;101266.06;;;29.25;53.89
44992;BME280;56865;51.618;7.406;2023-05-28T01:02:16;101264.44;;;28.78;54.46
44992;BME280;56865;51.618;7.406;2023-05-28T01:04:46;101254.84;;;28.99;53.82
44992;BME280;56865;51.618;7.406;2023-05-28T01:07:17;101258.53;;;28.73;53.82
44992;BME280;56865;51.618;7.406;2023-05-28T01:09:47;101258.88;;;29.08;54.47
44992;BME280;56865;51.618;7.406;2023-05-28T01:12:17;101259.44;;;29.16;54.09
44992;BME280;56865;51.618;7.406;2023-05-28T01:14:47;101255.59;;;29.02;53.94
44992;BME280;56865;51.618;7.406;2023-05-28T01:17:20;101266.88;;;28.82;54.30
44992;BME280;56865;51.618;7.406;2023-05-28T01:19:50;101266.22;;;28.77;54.76
44992;BME280;56865;51.618;7.406;2023-05-28T01:22:21;101260.97;;;28.77;54.11
44992;BME280;56865;51.618;7.406;2023-05-28T01:24:57;101256.81;;;28.94;54.00
44992;BME280;56865;51.618;7.406;2023-05-28T01:27:27;101268.03;;;28.75;54.59
44992;BME280;56865;51.618;7.406;2023-05-28T01:29:57;101266.13;;;28.57;53.98
44992;BME280;56865;51.618;7.406;2023-05-28T01:32:28;101260.09;;;28.99;54.92
44992;BME280;56865;51.618;7.406;2023-05-28T01:34:57;101259.88;;;29.26;54.10
44992;BME280;56865;51.618;7.406;2023-05-28T01:37:27;101255.38;;;29.29;53.33
44992;BME280;56865;51.618;7.406;2023-05-28T01:40:00;101256.03;;;29.34;54.08
44992;BME280;56865;51.618;7.406;2023-05-28T01:42:32;101251.69;;;28.91;54.51
44992;BME280;56865;51.618;7.406;2023-05-28T01:45:04;101238.13;;;29.01;54.79
44992;BME280;56865;51.618;7.406;2023-05-28T01:47:34;101251.16;;;29.25;54.49
44992;BME280;56865;51.618;7.406;2023-05-28T01:50:04;101244.41;;;28.75;53.99
44992;BME280;56865;51.618;7.406;2023-05-28T01:52:34;101247.34;;;28.67;54.53
44992;BME280;56865;51.618;7.406;2023-05-28T01:55:07;101249.13;;;28.43;54.90
44992;BME280;56865;51.618;7.406;2023-05-28T01:57:38;101243.31;;;28.35;54.50
44992;BME280;56865;51.618;7.406;2023-05-28T02:00:08;101242.94;;;28.22;55.11
44992;BME280;56865;51.618;7.406;2023-05-28T02:02:41;101237.59;;;28.71;55.46
44992;BME280;56865;51.618;7.406;2023-05-28T02:05:11;101244.56;;;28.72;54.60
44992;BME280;56865;51.618;7.406;2023-05-28T02:07:41;101240.59;;;28.38;54.82
44992;BME280;56865;51.618;7.406;2023-05-28T02:10:13;101240.81;;;28.32;54.98
44992;BME280;56865;51.618;7.406;2023-05-28T02:12:43;101237.31;;;28.33;54.32
44992;BME280;56865;51.618;7.406;2023-05-28T02:15:13;101241.72;;;28.54;54.96
44992;BME280;56865;51.618;7.406;2023-05-28T02:17:43;101243.22;;;28.38;54.74
44992;BME280;56865;51.618;7.406;2023-05-28T02:20:13;101233.06;;;28.29;54.58
44992;BME280;56865;51.618;7.406;2023-05-28T02:22:44;101236.13;;;28.18;55.03
44992;BME280;56865;51.618;7.406;2023-05-28T02:25:16;101234.56;;;28.12;54.76
44992;BME280;56865;51.618;7.406;2023-05-28T02:27:47;101235.78;;;28.02;55.31
44992;BME280;56865;51.618;7.406;2023-05-28T02:30:17;101241.25;;;27.96;54.96
44992;BME280;56865;51.618;7.406;2023-05-28T02:32:47;101234.94;;;28.01;54.56
44992;BME280;56865;51.618;7.406;2023-05-28T02:35:16;101236.03;;;28.19;55.54
44992;BME280;56865;51.618;7.406;2023-05-28T02:37:48;101233.94;;;27.80;55.84
44992;BME280;56865;51.618;7.406;2023-05-28T02:40:20;101236.63;;;28.02;55.12
44992;BME280;56865;51.618;7.406;2023-05-28T02:42:50;101235.41;;;27.64;55.78
44992;BME280;56865;51.618;7.406;2023-05-28T02:45:19;101243.34;;;27.86;55.12
44992;BME280;56865;51.618;7.406;2023-05-28T02:47:49;101239.63;;;27.68;55.91
44992;BME280;56865;51.618;7.406;2023-05-28T02:50:19;101246.31;;;27.77;54.93
44992;BME280;56865;51.618;7.406;2023-05-28T02:52:49;101239.94;;;28.09;55.90
44992;BME280;56865;51.618;7.406;2023-05-28T02:55:21;101239.19;;;28.51;54.77
44992;BME280;56865;51.618;7.406;2023-05-28T02:57:51;101236.56;;;28.05;56.09
44992;BME280;56865;51.618;7.406;2023-05-28T03:00:21;101239.19;;;27.80;55.79
44992;BME280;56865;51.618;7.406;2023-05-28T03:02:52;101238.72;;;28.42;55.31
44992;BME280;56865;51.618;7.406;2023-05-28T03:05:21;101245.59;;;27.97;55.01
44992;BME280;56865;51.618;7.406;2023-05-28T03:07:52;101248.84;;;28.03;55.51
44992;BME280;56865;51.618;7.406;2023-05-28T03:10:24;101258.72;;;27.71;55.85
44992;BME280;56865;51.618;7.406;2023-05-28T03:12:54;101255.38;;;28.17;55.07
44992;BME280;56865;51.618;7.406;2023-05-28T03:15:24;101260.22;;;27.53;55.29
44992;BME280;56865;51.618;7.406;2023-05-28T03:17:53;101267.13;;;27.54;54.75
44992;BME280;56865;51.618;7.406;2023-05-28T03:20:23;101267.84;;;27.60;55.71
44992;BME280;56865;51.618;7.406;2023-05-28T03:22:54;101266.84;;;27.89;55.54
44992;BME280;56865;51.618;7.406;2023-05-28T03:25:27;101259.41;;;27.77;55.61
44992;BME280;56865;51.618;7.406;2023-05-28T03:27:56;101266.72;;;27.92;56.20
44992;BME280;56865;51.618;7.406;2023-05-28T03:30:26;101260.47;;;27.71;55.97
44992;BME280;56865;51.618;7.406;2023-05-28T03:32:56;101255.69;;;27.82;55.77
44992;BME280;56865;51.618;7.406;2023-05-28T03:35:26;101243.31;;;27.35;56.18
44992;BME280;56865;51.618;7.406;2023-05-28T03:37:56;101244.16;;;27.88;56.06
44992;BME280;56865;51.618;7.406;2023-05-28T03:40:29;101245.97;;;27.86;55.87
44992;BME280;56865;51.618;7.406;2023-05-28T03:42:59;101240.44;;;27.70;55.63
44992;BME280;56865;51.618;7.406;2023-05-28T03:45:29;101243.56;;;27.80;56.00
44992;BME280;56865;51.618;7.406;2023-05-28T03:48:01;101241.69;;;27.83;55.86
44992;BME280;56865;51.618;7.406;2023-05-28T03:50:31;101235.75;;;27.78;55.89
44992;BME280;56865;51.618;7.406;2023-05-28T03:53:01;101235.72;;;27.54;56.27
44992;BME280;56865;51.618;7.406;2023-05-28T03:55:35;101235.69;;;27.80;55.70
44992;BME280;56865;51.618;7.406;2023-05-28T03:58:05;101239.97;;;27.59;55.86
44992;BME280;56865;51.618;7.406;2023-05-28T04:00:35;101245.56;;;27.73;56.17
44992;BME280;56865;51.618;7.406;2023-05-28T04:03:05;101245.50;;;27.49;56.04
44992;BME280;56865;51.618;7.406;2023-05-28T04:05:35;101239.50;;;27.71;56.06
44992;BME280;56865;51.618;7.406;2023-05-28T04:08:04;101239.63;;;27.68;56.13
44992;BME280;56865;51.618;7.406;2023-05-28T04:10:37;101245.84;;;28.14;56.87
44992;BME280;56865;51.618;7.406;2023-05-28T04:13:07;101243.22;;;28.14;55.76
44992;BME280;56865;51.618;7.406;2023-05-28T04:15:37;101242.88;;;28.24;55.29
44992;BME280;56865;51.618;7.406;2023-05-28T04:18:07;101241.91;;;28.26;55.39
44992;BME280;56865;51.618;7.406;2023-05-28T04:20:37;101241.75;;;28.31;54.96
44992;BME280;56865;51.618;7.406;2023-05-28T04:23:08;101242.25;;;28.41;54.96
44992;BME280;56865;51.618;7.406;2023-05-28T04:25:40;101246.75;;;28.37;56.17
44992;BME280;56865;51.618;7.406;2023-05-28T04:28:10;101237.78;;;28.43;55.57
44992;BME280;56865;51.618;7.406;2023-05-28T04:30:40;101254.38;;;28.67;56.20
44992;BME280;56865;51.618;7.406;2023-05-28T04:33:10;101258.13;;;28.60;56.19
44992;BME280;56865;51.618;7.406;2023-05-28T04:35:42;101261.72;;;28.57;55.91
44992;BME280;56865;51.618;7.406;2023-05-28T04:38:12;101268.00;;;28.77;55.96
44992;BME280;56865;51.618;7.406;2023-05-28T04:40:44;101261.66;;;28.59;56.12
44992;BME280;56865;51.618;7.406;2023-05-28T04:43:16;101262.25;;;28.67;54.53
44992;BME280;56865;51.618;7.406;2023-05-28T04:45:48;101271.75;;;28.92;56.06
44992;BME280;56865;51.618;7.406;2023-05-28T04:48:20;101271.56;;;28.74;55.95
44992;BME280;56865;51.618;7.406;2023-05-28T04:50:50;101275.00;;;28.98;55.65
44992;BME280;56865;51.618;7.406;2023-05-28T04:53:20;101269.81;;;28.97;55.29
44992;BME280;56865;51.618;7.406;2023-05-28T04:55:52;101271.72;;;28.93;52.58
44992;BME280;56865;51.618;7.406;2023-05-28T04:58:23;101277.28;;;28.85;53.11
44992;BME280;56865;51.618;7.406;2023-05-28T05:00:53;101276.44;;;29.28;54.12
44992;BME280;56865;51.618;7.406;2023-05-28T05:03:22;101274.97;;;29.43;54.16
44992;BME280;56865;51.618;7.406;2023-05-28T05:05:52;101271.94;;;29.09;52.40
44992;BME280;56865;51.618;7.406;2023-05-28T05:08:22;101274.75;;;29.68;54.17
44992;BME280;56865;51.618;7.406;2023-05-28T05:10:55;101273.91;;;29.67;52.84
44992;BME280;56865;51.618;7.406;2023-05-28T05:13:24;101274.78;;;29.89;52.96
44992;BME280;56865;51.618;7.406;2023-05-28T05:15:54;101269.06;;;29.79;51.73
44992;BME280;56865;51.618;7.406;2023-05-28T05:18:24;101280.72;;;30.32;51.78
44992;BME280;56865;51.618;7.406;2023-05-28T05:20:54;101285.19;;;30.51;52.05
44992;BME280;56865;51.618;7.406;2023-05-28T05:23:24;101293.59;;;30.76;52.49
44992;BME280;56865;51.618;7.406;2023-05-28T05:25:56;101293.94;;;30.88;51.03
44992;BME280;56865;51.618;7.406;2023-05-28T05:28:28;101287.81;;;31.06;52.58
44992;BME280;56865;51.618;7.406;2023-05-28T05:30:58;101290.00;;;30.96;50.59
44992;BME280;56865;51.618;7.406;2023-05-28T05:33:28;101294.81;;;31.25;51.00
44992;BME280;56865;51.618;7.406;2023-05-28T05:35:57;101288.13;;;31.53;51.66
44992;BME280;56865;51.618;7.406;2023-05-28T05:38:27;101302.47;;;31.82;53.72
44992;BME280;56865;51.618;7.406;2023-05-28T05:41:00;101296.03;;;31.88;53.43
44992;BME280;56865;51.618;7.406;2023-05-28T05:43:29;101299.53;;;31.71;50.25
44992;BME280;56865;51.618;7.406;2023-05-28T05:45:59;101302.72;;;32.11;53.22
44992;BME280;56865;51.618;7.406;2023-05-28T05:48:29;101297.34;;;31.97;50.83
44992;BME280;56865;51.618;7.406;2023-05-28T05:50:59;101305.75;;;32.03;50.14
44992;BME280;56865;51.618;7.406;2023-05-28T05:53:29;101304.31;;;31.98;51.03
44992;BME280;56865;51.618;7.406;2023-05-28T05:56:01;101309.59;;;32.31;51.66
44992;BME280;56865;51.618;7.406;2023-05-28T05:58:31;101306.53;;;32.05;51.10
44992;BME280;56865;51.618;7.406;2023-05-28T06:01:01;101304.22;;;31.99;50.83
44992;BME280;56865;51.618;7.406;2023-05-28T06:03:31;101294.38;;;32.03;49.85
44992;BME280;56865;51.618;7.406;2023-05-28T06:06:01;101290.78;;;32.37;52.33
44992;BME280;56865;51.618;7.406;2023-05-28T06:08:33;101290.25;;;32.63;49.19
44992;BME280;56865;51.618;7.406;2023-05-28T06:11:06;101289.69;;;32.89;49.60
44992;BME280;56865;51.618;7.406;2023-05-28T06:13:36;101288.94;;;33.18;48.23
44992;BME280;56865;51.618;7.406;2023-05-28T06:16:06;101291.47;;;33.35;48.43
44992;BME280;56865;51.618;7.406;2023-05-28T06:18:37;101298.41;;;33.52;46.90
44992;BME280;56865;51.618;7.406;2023-05-28T06:21:07;101297.47;;;33.68;48.45
44992;BME280;56865;51.618;7.406;2023-05-28T06:23:37;101301.56;;;34.02;46.61
44992;BME280;56865;51.618;7.406;2023-05-28T06:26:09;101295.16;;;34.07;45.95
44992;BME280;56865;51.618;7.406;2023-05-28T06:28:39;101294.66;;;34.14;45.38
44992;BME280;56865;51.618;7.406;2023-05-28T06:31:09;101300.22;;;34.53;48.25
44992;BME280;56865;51.618;7.406;2023-05-28T06:33:38;101299.66;;;34.90;45.70
44992;BME280;56865;51.618;7.406;2023-05-28T06:36:09;101307.84;;;34.99;48.82
44992;BME280;56865;51.618;7.406;2023-05-28T06:38:39;101303.50;;;34.98;48.26
44992;BME280;56865;51.618;7.406;2023-05-28T06:41:11;101302.16;;;35.19;49.42
44992;BME280;56865;51.618;7.406;2023-05-28T06:43:41;101307.25;;;35.22;48.65
44992;BME280;56865;51.618;7.406;2023-05-28T06:46:11;101313.72;;;35.18;47.20
44992;BME280;56865;51.618;7.406;2023-05-28T06:48:40;101308.91;;;34.97;47.70
44992;BME280;56865;51.618;7.406;2023-05-28T06:51:10;101316.00;;;35.37;43.83
44992;BME280;56865;51.618;7.406;2023-05-28T06:53:40;101312.88;;;35.17;43.05
44992;BME280;56865;51.618;7.406;2023-05-28T06:56:12;101316.19;;;35.34;43.69
44992;BME280;56865;51.618;7.406;2023-05-28T06:58:42;101327.91;;;35.44;45.61
44992;BME280;56865;51.618;7.406;2023-05-28T07:01:13;101322.59;;;35.57;43.80
44992;BME280;56865;51.618;7.406;2023-05-28T07:03:43;101324.09;;;35.61;42.27
44992;BME280;56865;51.618;7.406;2023-05-28T07:06:13;101323.66;;;35.54;45.39
44992;BME280;56865;51.618;7.406;2023-05-28T07:08:43;101331.31;;;35.46;43.99
44992;BME280;56865;51.618;7.406;2023-05-28T07:11:16;101328.31;;;35.63;43.40
44992;BME280;56865;51.618;7.406;2023-05-28T07:13:46;101326.84;;;35.59;46.26
44992;BME280;56865;51.618;7.406;2023-05-28T07:16:16;101332.06;;;35.74;45.53
44992;BME280;56865;51.618;7.406;2023-05-28T07:18:46;101332.69;;;35.39;42.14
44992;BME280;56865;51.618;7.406;2023-05-28T07:21:16;101333.44;;;35.79;45.81
44992;BME280;56865;51.618;7.406;2023-05-28T07:23:45;101326.63;;;35.37;44.27
44992;BME280;56865;51.618;7.406;2023-05-28T07:26:18;101333.84;;;35.47;44.66
44992;BME280;56865;51.618;7.406;2023-05-28T07:28:48;101328.56;;;35.60;41.78
44992;BME280;56865;51.618;7.406;2023-05-28T07:31:18;101328.13;;;35.79;45.37
44992;BME280;56865;51.618;7.406;2023-05-28T07:33:49;101329.84;;;35.68;42.98
44992;BME280;56865;51.618;7.406;2023-05-28T07:36:19;101337.25;;;35.75;45.52
44992;BME280;56865;51.618;7.406;2023-05-28T07:38:49;101344.41;;;36.01;42.74
44992;BME280;56865;51.618;7.406;2023-05-28T07:41:22;101347.03;;;36.14;42.15
44992;BME280;56865;51.618;7.406;2023-05-28T07:43:52;101344.34;;;36.26;45.28
44992;BME280;56865;51.618;7.406;2023-05-28T07:46:22;101341.09;;;35.84;44.66
44992;BME280;56865;51.618;7.406;2023-05-28T07:48:52;101334.84;;;35.98;44.66
44992;BME280;56865;51.618;7.406;2023-05-28T07:51:25;101336.63;;;35.72;44.92
44992;BME280;56865;51.618;7.406;2023-05-28T07:53:55;101330.97;;;35.63;46.38
44992;BME280;56865;51.618;7.406;2023-05-28T07:56:28;101329.94;;;35.79;44.89
44992;BME280;56865;51.618;7.406;2023-05-28T07:58:57;101337.81;;;35.93;45.67
44992;BME280;56865;51.618;7.406;2023-05-28T08:01:27;101333.91;;;35.99;44.74
44992;BME280;56865;51.618;7.406;2023-05-28T08:03:57;101337.47;;;35.85;44.74
44992;BME280;56865;51.618;7.406;2023-05-28T08:06:27;101326.44;;;36.04;45.23
44992;BME280;56865;51.618;7.406;2023-05-28T08:08:58;101330.47;;;36.10;42.12
44992;BME280;56865;51.618;7.406;2023-05-28T08:11:31;101330.66;;;36.46;43.91
44992;BME280;56865;51.618;7.406;2023-05-28T08:14:01;101332.94;;;36.63;41.15
44992;BME280;56865;51.618;7.406;2023-05-28T08:16:31;101323.38;;;36.60;43.45
44992;BME280;56865;51.618;7.406;2023-05-28T08:19:02;101327.09;;;36.82;43.19
44992;BME280;56865;51.618;7.406;2023-05-28T08:21:32;101315.41;;;36.60;43.56
44992;BME280;56865;51.618;7.406;2023-05-28T08:24:05;101313.88;;;36.69;42.53
44992;BME280;56865;51.618;7.406;2023-05-28T08:26:38;101315.03;;;36.78;43.13
44992;BME280;56865;51.618;7.406;2023-05-28T08:29:08;101312.78;;;36.85;42.32
44992;BME280;56865;51.618;7.406;2023-05-28T08:31:38;101310.84;;;36.87;40.17
44992;BME280;56865;51.618;7.406;2023-05-28T08:34:08;101302.56;;;36.79;39.20
44992;BME280;56865;51.618;7.406;2023-05-28T08:36:38;101306.34;;;37.12;42.15
44992;BME280;56865;51.618;7.406;2023-05-28T08:39:08;101311.47;;;36.90;39.08
44992;BME280;56865;51.618;7.406;2023-05-28T08:41:42;101306.44;;;36.99;39.04
44992;BME280;56865;51.618;7.406;2023-05-28T08:44:12;101302.78;;;36.88;40.97
44992;BME280;56865;51.618;7.406;2023-05-28T08:46:42;101305.25;;;37.14;41.56
44992;BME280;56865;51.618;7.406;2023-05-28T08:49:12;101304.13;;;37.30;40.17
44992;BME280;56865;51.618;7.406;2023-05-28T08:51:44;101297.09;;;37.29;39.16
44992;BME280;56865;51.618;7.406;2023-05-28T08:54:18;101298.50;;;37.10;39.86
44992;BME280;56865;51.618;7.406;2023-05-28T08:56:50;101298.03;;;37.16;40.78
44992;BME280;56865;51.618;7.406;2023-05-28T08:59:20;101300.53;;;36.82;40.09
44992;BME280;56865;51.618;7.406;2023-05-28T09:01:52;101296.59;;;37.23;39.64
44992;BME280;56865;51.618;7.406;2023-05-28T09:04:21;101295.41;;;37.28;39.72
44992;BME280;56865;51.618;7.406;2023-05-28T09:06:53;101287.97;;;37.08;41.62
44992;BME280;56865;51.618;7.406;2023-05-28T09:09:23;101288.94;;;36.83;42.16
44992;BME280;56865;51.618;7.406;2023-05-28T09:12:02;101284.09;;;36.77;41.01
44992;BME280;56865;51.618;7.406;2023-05-28T09:14:33;101277.66;;;36.92;41.60
44992;BME280;56865;51.618;7.406;2023-05-28T09:17:06;101285.88;;;36.89;41.11
44992;BME280;56865;51.618;7.406;2023-05-28T09:19:40;101281.44;;;36.77;39.48
44992;BME280;56865;51.618;7.406;2023-05-28T09:22:19;101281.50;;;36.88;40.27
44992;BME280;56865;51.618;7.406;2023-05-28T09:24:53;101280.22;;;36.81;38.72
44992;BME280;56865;51.618;7.406;2023-05-28T09:28:08;101282.03;;;37.05;38.32
44992;BME280;56865;51.618;7.406;2023-05-28T09:30:39;101283.41;;;37.22;38.72
44992;BME280;56865;51.618;7.406;2023-05-28T09:33:09;101286.38;;;37.42;40.73
44992;BME280;56865;51.618;7.406;2023-05-28T09:35:39;101283.00;;;37.04;38.18
44992;BME280;56865;51.618;7.406;2023-05-28T09:38:11;101279.44;;;37.28;39.24
44992;BME280;56865;51.618;7.406;2023-05-28T09:40:41;101276.44;;;37.32;40.11
44992;BME280;56865;51.618;7.406;2023-05-28T09:43:14;101277.53;;;37.30;40.08
44992;BME280;56865;51.618;7.406;2023-05-28T09:45:44;101274.03;;;37.40;40.37
44992;BME280;56865;51.618;7.406;2023-05-28T09:48:13;101275.88;;;37.51;40.76
44992;BME280;56865;51.618;7.406;2023-05-28T09:50:43;101287.16;;;37.19;38.57
44992;BME280;56865;51.618;7.406;2023-05-28T09:53:13;101276.97;;;37.49;38.44
44992;BME280;56865;51.618;7.406;2023-05-28T09:55:44;101271.19;;;37.55;38.13
44992;BME280;56865;51.618;7.406;2023-05-28T09:58:18;101269.00;;;37.60;39.48
44992;BME280;56865;51.618;7.406;2023-05-28T10:00:52;101272.84;;;37.67;38.11
44992;BME280;56865;51.618;7.406;2023-05-28T10:03:24;101263.84;;;37.81;37.98
44992;BME280;56865;51.618;7.406;2023-05-28T10:05:56;101268.41;;;38.02;38.81
44992;BME280;56865;51.618;7.406;2023-05-28T10:08:26;101269.03;;;37.94;38.68
44992;BME280;56865;51.618;7.406;2023-05-28T10:10:56;101272.63;;;38.04;38.52
44992;BME280;56865;51.618;7.406;2023-05-28T10:13:28;101270.44;;;38.10;39.12
44992;BME280;56865;51.618;7.406;2023-05-28T10:16:00;101266.56;;;38.02;39.47
44992;BME280;56865;51.618;7.406;2023-05-28T10:18:30;101269.72;;;38.08;40.23
44992;BME280;56865;51.618;7.406;2023-05-28T10:20:59;101271.81;;;37.81;36.88
44992;BME280;56865;51.618;7.406;2023-05-28T10:23:29;101274.66;;;38.24;37.76
44992;BME280;56865;51.618;7.406;2023-05-28T10:25:59;101272.88;;;38.13;38.71
44992;BME280;56865;51.618;7.406;2023-05-28T10:28:32;101266.06;;;38.20;37.96
44992;BME280;56865;51.618;7.406;2023-05-28T10:31:02;101269.94;;;38.27;39.56
44992;BME280;56865;51.618;7.406;2023-05-28T10:33:37;101257.88;;;37.66;37.22
44992;BME280;56865;51.618;7.406;2023-05-28T10:36:10;101271.28;;;38.21;37.67
44992;BME280;56865;51.618;7.406;2023-05-28T10:38:41;101271.69;;;38.05;35.81
44992;BME280;56865;51.618;7.406;2023-05-28T10:41:17;101275.66;;;38.00;36.29
44992;BME280;56865;51.618;7.406;2023-05-28T10:43:51;101281.22;;;38.08;34.85
44992;BME280;56865;51.618;7.406;2023-05-28T10:46:25;101271.84;;;38.48;37.98
44992;BME280;56865;51.618;7.406;2023-05-28T10:49:05;101275.00;;;38.53;38.98
44992;BME280;56865;51.618;7.406;2023-05-28T10:51:43;101272.00;;;38.79;38.92
44992;BME280;56865;51.618;7.406;2023-05-28T10:54:16;101270.06;;;38.26;35.42
44992;BME280;56865;51.618;7.406;2023-05-28T10:57:05;101269.94;;;38.71;39.72
44992;BME280;56865;51.618;7.406;2023-05-28T10:59:39;101262.59;;;38.63;37.88
44992;BME280;56865;51.618;7.406;2023-05-28T11:02:09;101255.41;;;38.75;38.06
44992;BME280;56865;51.618;7.406;2023-05-28T11:04:39;101258.03;;;38.43;36.17
44992;BME280;56865;51.618;7.406;2023-05-28T11:07:09;101248.63;;;38.39;38.71
44992;BME280;56865;51.618;7.406;2023-05-28T11:09:41;101265.69;;;38.36;38.54
44992;BME280;56865;51.618;7.406;2023-05-28T11:12:11;101269.03;;;37.94;35.73
44992;BME280;56865;51.618;7.406;2023-05-28T11:14:48;101264.00;;;38.35;37.28
44992;BME280;56865;51.618;7.406;2023-05-28T11:17:21;101271.03;;;38.25;39.43
44992;BME280;56865;51.618;7.406;2023-05-28T11:19:51;101264.22;;;37.30;35.19
44992;BME280;56865;51.618;7.406;2023-05-28T11:22:21;101276.88;;;38.07;36.52
44992;BME280;56865;51.618;7.406;2023-05-28T11:24:54;101273.44;;;38.16;35.68
44992;BME280;56865;51.618;7.406;2023-05-28T11:27:28;101270.25;;;38.45;37.54
44992;BME280;56865;51.618;7.406;2023-05-28T11:30:06;101266.41;;;38.70;37.36
44992;BME280;56865;51.618;7.406;2023-05-28T11:32:36;101266.00;;;38.10;35.78
44992;BME280;56865;51.618;7.406;2023-05-28T11:35:08;101264.19;;;38.55;37.69
44992;BME280;56865;51.618;7.406;2023-05-28T11:37:39;101270.91;;;38.26;35.15
44992;BME280;56865;51.618;7.406;2023-05-28T11:40:10;101271.91;;;38.02;34.25
44992;BME280;56865;51.618;7.406;2023-05-28T11:42:41;101268.84;;;38.74;34.36
44992;BME280;56865;51.618;7.406;2023-05-28T11:45:14;101266.94;;;38.97;36.84
44992;BME280;56865;51.618;7.406;2023-05-28T11:47:44;101252.81;;;38.85;36.68
44992;BME280;56865;51.618;7.406;2023-05-28T11:50:16;101262.38;;;38.88;37.60
44992;BME280;56865;51.618;7.406;2023-05-28T11:52:46;101270.19;;;38.68;36.84
44992;BME280;56865;51.618;7.406;2023-05-28T11:55:16;101260.16;;;38.93;37.13
44992;BME280;56865;51.618;7.406;2023-05-28T11:57:51;101269.81;;;39.05;37.19
44992;BME280;56865;51.618;7.406;2023-05-28T12:00:31;101272.31;;;38.85;33.98
44992;BME280;56865;51.618;7.406;2023-05-28T12:03:04;101267.69;;;39.20;38.81
44992;BME280;56865;51.618;7.406;2023-05-28T12:05:37;101260.19;;;39.14;36.11
44992;BME280;56865;51.618;7.406;2023-05-28T12:08:07;101267.00;;;38.53;33.33
44992;BME280;56865;51.618;7.406;2023-05-28T12:10:40;101265.44;;;39.04;32.66
44992;BME280;56865;51.618;7.406;2023-05-28T12:13:11;101262.75;;;38.83;31.93
44992;BME280;56865;51.618;7.406;2023-05-28T12:15:45;101262.38;;;38.55;33.86
44992;BME280;56865;51.618;7.406;2023-05-28T12:18:14;101252.78;;;39.39;36.51
44992;BME280;56865;51.618;7.406;2023-05-28T12:20:53;101256.78;;;39.12;35.59
44992;BME280;56865;51.618;7.406;2023-05-28T12:23:33;101250.44;;;38.38;33.08
44992;BME280;56865;51.618;7.406;2023-05-28T12:26:03;101256.34;;;39.28;33.00
44992;BME280;56865;51.618;7.406;2023-05-28T12:28:38;101256.72;;;39.65;36.22
44992;BME280;56865;51.618;7.406;2023-05-28T12:31:20;101251.66;;;39.41;35.02
44992;BME280;56865;51.618;7.406;2023-05-28T12:33:59;101252.53;;;39.82;38.38
44992;BME280;56865;51.618;7.406;2023-05-28T12:36:30;101257.66;;;39.64;34.21
44992;BME280;56865;51.618;7.406;2023-05-28T12:39:01;101258.84;;;39.72;35.32
44992;BME280;56865;51.618;7.406;2023-05-28T12:41:35;101260.63;;;39.40;32.71
44992;BME280;56865;51.618;7.406;2023-05-28T12:44:08;101250.91;;;40.01;36.27
44992;BME280;56865;51.618;7.406;2023-05-28T12:46:41;101254.13;;;39.95;34.16
44992;BME280;56865;51.618;7.406;2023-05-28T12:49:13;101248.22;;;40.01;35.19
44992;BME280;56865;51.618;7.406;2023-05-28T12:51:43;101262.03;;;40.06;33.65
44992;BME280;56865;51.618;7.406;2023-05-28T12:54:12;101256.59;;;40.18;33.45
44992;BME280;56865;51.618;7.406;2023-05-28T12:56:44;101255.91;;;40.25;34.25
44992;BME280;56865;51.618;7.406;2023-05-28T12:59:22;101247.50;;;40.69;34.38
44992;BME280;56865;51.618;7.406;2023-05-28T13:01:57;101239.50;;;40.59;33.83
44992;BME280;56865;51.618;7.406;2023-05-28T13:04:34;101244.00;;;40.59;32.23
44992;BME280;56865;51.618;7.406;2023-05-28T13:07:04;101239.47;;;40.69;32.71
44992;BME280;56865;51.618;7.406;2023-05-28T13:09:35;101237.19;;;40.35;33.11
44992;BME280;56865;51.618;7.406;2023-05-28T13:12:05;101235.66;;;40.42;33.54